Time;durP1;ratioP1;P1;durP2;ratioP2;P2;SDS_P1;SDS_P2;PMS_P1;PMS_P2;Temp;Humidity;BMP_temperature;BMP_pressure;BME280_temperature;BME280_humidity;BME280_pressure;Samples;Min_cycle;Max_cycle;Signal;HPM_P1;HPM_P2
2023/08/03 00:00:40;;;;;;;14.05;12.43;;;;;;;;;;4951864;29;20170;-73
2023/08/03 00:03:06;;;;;;;17.85;12.82;;;;;;;;;;4951819;28;20047;-74
2023/08/03 00:05:32;;;;;;;15.80;13.23;;;;;;;;;;4951778;28;20537;-74
2023/08/03 00:07:58;;;;;;;12.32;11.00;;;;;;;;;;4953355;28;20068;-75
2023/08/03 00:10:25;;;;;;;18.25;14.07;;;;;;;;;;4955688;29;20043;-75
2023/08/03 00:12:51;;;;;;;16.20;12.80;;;;;;;;;;4955203;28;20445;-73
2023/08/03 00:15:16;;;;;;;14.38;12.52;;;;;;;;;;4955579;28;20043;-74
2023/08/03 00:17:43;;;;;;;13.52;12.25;;;;;;;;;;4955019;28;20453;-73
2023/08/03 00:20:09;;;;;;;15.20;13.30;;;;;;;;;;4955569;28;20039;-74
2023/08/03 00:22:35;;;;;;;14.55;12.65;;;;;;;;;;4955304;28;20070;-73
2023/08/03 00:25:01;;;;;;;20.27;13.88;;;;;;;;;;4953652;29;20055;-74
2023/08/03 00:27:31;;;;;;;14.73;13.18;;;;;;;;;;4955268;28;20494;-74
2023/08/03 00:29:56;;;;;;;15.02;13.60;;;;;;;;;;4953622;29;20042;-74
2023/08/03 00:32:22;;;;;;;17.15;12.73;;;;;;;;;;4955198;28;20039;-73
2023/08/03 00:34:48;;;;;;;14.30;12.80;;;;;;;;;;4954732;28;20054;-74
2023/08/03 00:37:15;;;;;;;15.32;12.50;;;;;;;;;;4955136;28;20046;-74
2023/08/03 00:39:41;;;;;;;14.88;11.32;;;;;;;;;;4954942;28;20043;-74
2023/08/03 00:42:09;;;;;;;12.88;11.60;;;;;;;;;;4955000;28;20129;-74
2023/08/03 00:44:37;;;;;;;15.82;14.38;;;;;;;;;;4954923;28;20034;-73
2023/08/03 00:47:03;;;;;;;16.60;15.05;;;;;;;;;;4955013;28;20094;-74
2023/08/03 00:49:29;;;;;;;17.02;13.82;;;;;;;;;;4953727;29;20050;-74
2023/08/03 00:51:55;;;;;;;14.55;13.13;;;;;;;;;;4954573;29;20414;-75
2023/08/03 00:54:21;;;;;;;15.27;13.27;;;;;;;;;;4953474;29;20195;-74
2023/08/03 00:56:47;;;;;;;16.63;13.40;;;;;;;;;;4954544;28;20524;-74
2023/08/03 00:59:13;;;;;;;15.23;12.75;;;;;;;;;;4954803;28;20039;-74
2023/08/03 01:01:43;;;;;;;19.58;13.57;;;;;;;;;;4953497;29;20490;-73
2023/08/03 01:04:09;;;;;;;15.10;13.73;;;;;;;;;;4954376;28;20470;-74
2023/08/03 01:06:35;;;;;;;15.30;13.50;;;;;;;;;;4954833;28;20054;-74
2023/08/03 01:09:05;;;;;;;17.70;12.82;;;;;;;;;;4954234;28;20042;-73
2023/08/03 01:11:31;;;;;;;16.60;14.18;;;;;;;;;;4954525;29;20027;-75
2023/08/03 01:13:57;;;;;;;20.70;14.45;;;;;;;;;;4953987;29;20527;-75
2023/08/03 01:16:24;;;;;;;16.73;14.13;;;;;;;;;;4953245;29;20043;-74
2023/08/03 01:18:50;;;;;;;20.20;13.35;;;;;;;;;;4952991;28;20043;-74
2023/08/03 01:21:17;;;;;;;19.10;13.10;;;;;;;;;;4954268;29;20175;-73
2023/08/03 01:23:43;;;;;;;17.42;11.27;;;;;;;;;;4954190;28;20039;-74
2023/08/03 01:26:08;;;;;;;21.90;11.40;;;;;;;;;;4952834;29;20039;-74
2023/08/03 01:28:34;;;;;;;16.60;12.95;;;;;;;;;;4952760;29;20043;-75
2023/08/03 01:31:00;;;;;;;21.25;11.95;;;;;;;;;;4953869;28;20565;-74
2023/08/03 01:33:26;;;;;;;13.85;11.60;;;;;;;;;;4953968;28;20047;-75
2023/08/03 01:35:52;;;;;;;14.02;11.07;;;;;;;;;;4953752;28;20044;-73
2023/08/03 01:38:19;;;;;;;14.25;11.23;;;;;;;;;;4968871;28;20263;-75
2023/08/03 01:40:44;;;;;;;13.07;10.98;;;;;;;;;;4954054;28;20093;-74
2023/08/03 01:43:13;;;;;;;15.52;10.70;;;;;;;;;;4953950;28;20047;-74
2023/08/03 01:45:39;;;;;;;17.15;11.60;;;;;;;;;;4953860;29;20402;-74
2023/08/03 01:48:05;;;;;;;15.45;9.82;;;;;;;;;;4952730;29;20050;-73
2023/08/03 01:50:31;;;;;;;17.80;10.60;;;;;;;;;;4953945;28;20039;-74
2023/08/03 01:52:57;;;;;;;13.80;11.07;;;;;;;;;;4953473;28;20066;-75
2023/08/03 01:55:23;;;;;;;12.70;10.82;;;;;;;;;;4954005;28;20533;-73
2023/08/03 01:57:49;;;;;;;17.67;11.48;;;;;;;;;;4956135;28;20146;-75
2023/08/03 02:00:16;;;;;;;10.23;9.30;;;;;;;;;;4956942;29;20031;-75
2023/08/03 02:02:46;;;;;;;9.82;9.02;;;;;;;;;;4956710;28;20039;-74
2023/08/03 02:05:14;;;;;;;9.80;9.07;;;;;;;;;;4961234;29;20067;-73
2023/08/03 02:07:44;;;;;;;13.20;11.13;;;;;;;;;;4966194;29;20023;-73
2023/08/03 02:10:11;;;;;;;11.32;10.43;;;;;;;;;;4966190;28;20046;-73
2023/08/03 02:12:37;;;;;;;12.15;10.55;;;;;;;;;;4953468;28;20035;-74
2023/08/03 02:15:04;;;;;;;21.30;11.10;;;;;;;;;;4951946;29;20507;-72
2023/08/03 02:17:31;;;;;;;14.65;10.77;;;;;;;;;;4951939;29;20035;-74
2023/08/03 02:19:57;;;;;;;12.77;9.75;;;;;;;;;;4951674;29;20042;-74
2023/08/03 02:22:23;;;;;;;10.38;9.35;;;;;;;;;;4935940;29;20363;-74
2023/08/03 02:24:50;;;;;;;12.18;9.45;;;;;;;;;;4953121;28;20046;-73
2023/08/03 02:27:16;;;;;;;11.38;9.80;;;;;;;;;;4953858;28;20031;-74
2023/08/03 02:29:41;;;;;;;10.35;9.45;;;;;;;;;;4954641;28;20461;-73
2023/08/03 02:32:08;;;;;;;11.13;8.85;;;;;;;;;;4951911;29;20032;-74
2023/08/03 02:34:36;;;;;;;10.15;8.82;;;;;;;;;;4935833;29;20066;-72
2023/08/03 02:37:03;;;;;;;10.15;9.18;;;;;;;;;;4935841;29;20082;-73
2023/08/03 02:39:29;;;;;;;10.18;9.10;;;;;;;;;;4951607;29;20414;-73
2023/08/03 02:41:57;;;;;;;10.35;9.13;;;;;;;;;;4951394;29;20059;-75
2023/08/03 02:44:27;;;;;;;11.85;9.38;;;;;;;;;;4951632;29;20107;-75
2023/08/03 02:46:53;;;;;;;9.85;8.85;;;;;;;;;;4951396;29;20039;-73
2023/08/03 02:49:19;;;;;;;12.18;9.40;;;;;;;;;;4951616;29;20086;-74
2023/08/03 02:51:49;;;;;;;13.20;8.38;;;;;;;;;;4952068;29;20041;-73
2023/08/03 02:54:18;;;;;;;10.15;9.15;;;;;;;;;;4951495;29;20059;-74
2023/08/03 02:56:51;;;;;;;10.20;8.93;;;;;;;;;;4951585;29;20398;-73
2023/08/03 02:59:18;;;;;;;9.63;8.77;;;;;;;;;;4952734;29;20490;-74
2023/08/03 03:01:45;;;;;;;10.40;9.43;;;;;;;;;;4951995;29;20050;-75
2023/08/03 03:04:11;;;;;;;9.68;8.77;;;;;;;;;;4951202;29;20051;-73
2023/08/03 03:06:42;;;;;;;10.50;8.80;;;;;;;;;;4935243;29;20046;-72
2023/08/03 03:09:10;;;;;;;9.15;8.35;;;;;;;;;;4934958;29;20074;-72
2023/08/03 03:11:39;;;;;;;15.32;8.73;;;;;;;;;;4951263;29;20391;-75
2023/08/03 03:14:06;;;;;;;15.65;8.60;;;;;;;;;;4950840;29;20043;-75
2023/08/03 03:16:32;;;;;;;9.23;8.40;;;;;;;;;;4951133;29;20039;-75
2023/08/03 03:18:58;;;;;;;12.82;8.75;;;;;;;;;;4950706;28;20046;-73
2023/08/03 03:21:27;;;;;;;10.75;9.82;;;;;;;;;;4951118;29;20050;-74
2023/08/03 03:23:53;;;;;;;13.73;12.52;;;;;;;;;;4950868;29;20383;-74
2023/08/03 03:26:19;;;;;;;17.02;14.68;;;;;;;;;;4951129;29;20043;-75
2023/08/03 03:28:46;;;;;;;14.65;12.65;;;;;;;;;;4951033;29;20031;-74
2023/08/03 03:31:14;;;;;;;16.08;13.27;;;;;;;;;;4950787;29;20058;-75
2023/08/03 03:33:40;;;;;;;17.45;12.45;;;;;;;;;;4950941;29;20427;-75
2023/08/03 03:36:13;;;;;;;18.85;16.70;;;;;;;;;;4950677;29;20045;-75
2023/08/03 03:38:39;;;;;;;32.50;17.42;;;;;;;;;;4950892;29;20062;-73
2023/08/03 03:41:05;;;;;;;19.38;17.45;;;;;;;;;;4950780;29;20039;-74
2023/08/03 03:43:36;;;;;;;25.08;17.42;;;;;;;;;;4956630;28;20197;-74
2023/08/03 03:46:02;;;;;;;19.70;17.75;;;;;;;;;;4958250;28;20118;-74
2023/08/03 03:48:29;;;;;;;19.20;16.25;;;;;;;;;;4958377;29;20039;-74
2023/08/03 03:50:57;;;;;;;21.30;18.17;;;;;;;;;;4956945;28;20038;-74
2023/08/03 03:53:24;;;;;;;15.75;14.25;;;;;;;;;;4957977;29;20051;-76
2023/08/03 03:55:52;;;;;;;18.85;15.88;;;;;;;;;;4957041;29;20127;-76
2023/08/03 03:58:18;;;;;;;16.08;13.32;;;;;;;;;;4957097;29;20051;-73
2023/08/03 04:00:44;;;;;;;11.20;10.10;;;;;;;;;;4957229;28;20398;-75
2023/08/03 04:03:12;;;;;;;12.65;10.75;;;;;;;;;;4956811;28;20125;-75
2023/08/03 04:05:38;;;;;;;20.13;10.20;;;;;;;;;;4956994;29;20039;-75
2023/08/03 04:08:05;;;;;;;16.85;11.15;;;;;;;;;;4956829;28;20167;-73
2023/08/03 04:10:32;;;;;;;11.23;9.63;;;;;;;;;;4957269;28;20054;-74
2023/08/03 04:12:58;;;;;;;12.00;8.90;;;;;;;;;;4956913;29;20039;-74
2023/08/03 04:15:25;;;;;;;15.27;8.85;;;;;;;;;;4957060;28;20043;-74
2023/08/03 04:17:51;;;;;;;13.77;9.63;;;;;;;;;;4956902;29;20043;-75
2023/08/03 04:20:37;;;;;;;10.60;7.57;;;;;;;;;;4957893;28;20055;-75
2023/08/03 04:23:04;;;;;;;8.27;7.43;;;;;;;;;;4940805;29;20031;-74
2023/08/03 04:25:30;;;;;;;11.00;8.65;;;;;;;;;;4956681;28;20043;-75
2023/08/03 04:28:03;;;;;;;9.98;8.00;;;;;;;;;;4956745;29;20035;-76
2023/08/03 04:30:33;;;;;;;12.23;8.00;;;;;;;;;;4957422;28;20066;-75
2023/08/03 04:33:00;;;;;;;12.27;8.55;;;;;;;;;;4956542;29;20118;-73
2023/08/03 04:35:28;;;;;;;10.02;8.95;;;;;;;;;;4956726;29;20047;-72
2023/08/03 04:38:03;;;;;;;12.90;8.68;;;;;;;;;;4956722;28;20145;-74
2023/08/03 04:40:31;;;;;;;10.82;9.10;;;;;;;;;;4956864;29;20042;-74
2023/08/03 04:42:57;;;;;;;10.13;8.30;;;;;;;;;;4956844;29;20117;-74
2023/08/03 04:45:23;;;;;;;12.75;8.65;;;;;;;;;;4958107;28;20402;-74
2023/08/03 04:47:49;;;;;;;11.05;8.80;;;;;;;;;;4957825;29;20054;-74
2023/08/03 04:50:19;;;;;;;12.15;8.98;;;;;;;;;;4956878;28;20043;-74
2023/08/03 04:52:45;;;;;;;13.68;8.57;;;;;;;;;;4957764;28;20414;-75
2023/08/03 04:55:11;;;;;;;9.88;8.25;;;;;;;;;;4953453;28;20055;-73
2023/08/03 04:57:37;;;;;;;12.23;8.45;;;;;;;;;;4953250;29;20047;-76
2023/08/03 05:00:04;;;;;;;8.85;8.02;;;;;;;;;;4953398;29;20135;-76
2023/08/03 05:02:31;;;;;;;9.23;8.38;;;;;;;;;;4937850;29;20089;-75
2023/08/03 05:04:57;;;;;;;14.82;8.82;;;;;;;;;;4953963;29;20047;-76
2023/08/03 05:07:23;;;;;;;11.68;9.10;;;;;;;;;;4955006;28;20495;-74
2023/08/03 05:09:49;;;;;;;10.23;8.95;;;;;;;;;;4958660;28;20043;-75
2023/08/03 05:12:15;;;;;;;10.68;9.13;;;;;;;;;;4967649;29;20038;-75
2023/08/03 05:14:41;;;;;;;7.80;7.00;;;;;;;;;;4963830;28;20054;-74
2023/08/03 05:17:07;;;;;;;9.40;8.52;;;;;;;;;;4955712;28;20034;-75
2023/08/03 05:19:33;;;;;;;9.00;7.60;;;;;;;;;;4954392;29;20041;-75
2023/08/03 05:21:59;;;;;;;8.70;7.97;;;;;;;;;;4954568;28;20031;-75
2023/08/03 05:24:25;;;;;;;8.73;7.97;;;;;;;;;;4954767;28;20039;-76
2023/08/03 05:26:51;;;;;;;9.27;7.88;;;;;;;;;;4954221;28;20034;-76
2023/08/03 05:29:18;;;;;;;10.80;7.22;;;;;;;;;;4952791;29;20039;-74
2023/08/03 05:31:47;;;;;;;14.00;8.02;;;;;;;;;;4954161;29;20035;-75
2023/08/03 05:34:13;;;;;;;8.50;7.25;;;;;;;;;;4953744;29;20055;-75
2023/08/03 05:36:39;;;;;;;8.13;7.22;;;;;;;;;;4953996;29;20035;-73
2023/08/03 05:39:05;;;;;;;8.60;7.70;;;;;;;;;;4953634;28;20172;-76
2023/08/03 05:41:32;;;;;;;8.25;7.45;;;;;;;;;;4953878;28;20422;-76
2023/08/03 05:43:58;;;;;;;10.65;6.90;;;;;;;;;;4953829;28;20055;-75
2023/08/03 05:46:24;;;;;;;8.52;7.63;;;;;;;;;;4953851;28;20529;-74
2023/08/03 05:48:52;;;;;;;7.35;6.75;;;;;;;;;;4953852;28;20046;-75
2023/08/03 05:51:23;;;;;;;8.43;7.63;;;;;;;;;;4953713;28;20039;-75
2023/08/03 05:53:49;;;;;;;10.88;7.43;;;;;;;;;;4953706;28;20109;-75
2023/08/03 05:56:15;;;;;;;7.85;7.05;;;;;;;;;;4952471;29;20561;-75
2023/08/03 05:58:41;;;;;;;7.25;6.70;;;;;;;;;;4953766;28;20051;-74
2023/08/03 06:01:09;;;;;;;8.95;7.35;;;;;;;;;;4953349;28;20051;-76
2023/08/03 06:03:35;;;;;;;8.43;6.57;;;;;;;;;;4952502;29;20035;-76
2023/08/03 06:06:01;;;;;;;12.13;7.72;;;;;;;;;;4951717;28;20070;-74
2023/08/03 06:08:27;;;;;;;12.00;7.10;;;;;;;;;;4953296;28;20039;-75
2023/08/03 06:10:54;;;;;;;15.27;7.47;;;;;;;;;;4953309;28;20031;-75
2023/08/03 06:13:21;;;;;;;11.25;7.30;;;;;;;;;;4953104;28;20071;-76
2023/08/03 06:15:47;;;;;;;9.43;6.07;;;;;;;;;;4953132;29;20043;-76
2023/08/03 06:18:16;;;;;;;16.13;7.53;;;;;;;;;;4952998;28;20039;-74
2023/08/03 06:20:43;;;;;;;12.70;6.90;;;;;;;;;;4953198;28;20031;-76
2023/08/03 06:23:16;;;;;;;19.98;7.10;;;;;;;;;;4953097;28;20133;-74
2023/08/03 06:25:42;;;;;;;15.30;6.80;;;;;;;;;;4953065;28;20120;-75
2023/08/03 06:28:08;;;;;;;30.50;6.55;;;;;;;;;;4952958;28;20552;-76
2023/08/03 06:30:35;;;;;;;18.83;6.28;;;;;;;;;;4953076;28;20042;-75
2023/08/03 06:33:01;;;;;;;6.90;5.10;;;;;;;;;;4951801;29;20071;-76
2023/08/03 06:35:30;;;;;;;14.32;5.95;;;;;;;;;;4952724;28;20039;-76
2023/08/03 06:37:56;;;;;;;12.43;6.57;;;;;;;;;;4953039;29;20035;-76
2023/08/03 06:40:23;;;;;;;16.80;7.43;;;;;;;;;;4951389;29;20035;-75
2023/08/03 06:42:49;;;;;;;14.73;6.18;;;;;;;;;;4952906;28;20039;-75
2023/08/03 06:45:15;;;;;;;14.45;6.40;;;;;;;;;;4952529;28;20043;-76
2023/08/03 06:47:41;;;;;;;18.45;7.28;;;;;;;;;;4952774;28;20558;-75
2023/08/03 06:50:08;;;;;;;13.55;6.32;;;;;;;;;;4952348;28;20502;-75
2023/08/03 06:52:34;;;;;;;11.32;5.70;;;;;;;;;;4952607;28;20538;-75
2023/08/03 06:55:00;;;;;;;8.32;4.97;;;;;;;;;;4952056;29;20050;-76
2023/08/03 06:57:26;;;;;;;14.50;5.55;;;;;;;;;;4952417;28;20055;-76
2023/08/03 06:59:55;;;;;;;6.45;5.55;;;;;;;;;;4952549;28;20043;-77
2023/08/03 07:02:21;;;;;;;11.10;4.88;;;;;;;;;;4952579;28;20526;-76
2023/08/03 07:04:48;;;;;;;12.68;4.57;;;;;;;;;;4951127;29;20041;-75
2023/08/03 07:07:14;;;;;;;11.38;5.38;;;;;;;;;;4935137;29;20035;-75
2023/08/03 07:09:40;;;;;;;9.55;5.72;;;;;;;;;;4952378;28;20035;-76
2023/08/03 07:12:09;;;;;;;12.98;5.60;;;;;;;;;;4952415;29;20043;-75
2023/08/03 07:14:35;;;;;;;;;;;;;;;;;;4952799;29;20506;-75
2023/08/03 07:17:01;;;;;;;6.70;4.97;;;;;;;;;;4951549;28;19914;-76
2023/08/03 07:19:27;;;;;;;11.82;5.00;;;;;;;;;;4952025;28;20539;-77
2023/08/03 07:21:53;;;;;;;9.07;5.18;;;;;;;;;;4952297;28;20114;-76
2023/08/03 07:24:20;;;;;;;8.27;4.82;;;;;;;;;;4952066;29;20031;-77
2023/08/03 07:26:50;;;;;;;5.53;5.03;;;;;;;;;;4952242;28;20513;-76
2023/08/03 07:29:16;;;;;;;5.88;5.03;;;;;;;;;;4952047;28;20139;-76
2023/08/03 07:31:42;;;;;;;7.70;5.25;;;;;;;;;;4952344;29;20037;-75
2023/08/03 07:34:08;;;;;;;4.75;4.45;;;;;;;;;;4951927;29;20062;-75
2023/08/03 07:36:34;;;;;;;6.10;4.97;;;;;;;;;;4952270;28;20494;-75
2023/08/03 07:39:00;;;;;;;5.57;5.00;;;;;;;;;;4952254;28;20066;-75
2023/08/03 07:41:26;;;;;;;5.60;4.55;;;;;;;;;;4952523;28;20039;-76
2023/08/03 07:43:52;;;;;;;5.30;4.70;;;;;;;;;;4952560;28;20043;-75
2023/08/03 07:46:18;;;;;;;6.60;4.28;;;;;;;;;;4952869;28;20058;-74
2023/08/03 07:48:44;;;;;;;10.10;4.65;;;;;;;;;;4953467;28;20101;-76
2023/08/03 07:51:13;;;;;;;4.50;4.20;;;;;;;;;;4952851;29;20540;-75
2023/08/03 07:53:39;;;;;;;10.70;4.75;;;;;;;;;;4953352;28;20051;-75
2023/08/03 07:56:24;;;;;;;6.07;4.40;;;;;;;;;;4953982;28;20043;-77
2023/08/03 07:58:50;;;;;;;5.95;4.38;;;;;;;;;;4954323;28;20050;-74
2023/08/03 08:01:16;;;;;;;6.22;4.40;;;;;;;;;;4953136;28;20051;-75
2023/08/03 08:03:42;;;;;;;5.10;4.50;;;;;;;;;;4951178;29;20426;-77
2023/08/03 08:06:09;;;;;;;4.45;4.05;;;;;;;;;;4952192;28;20426;-75
2023/08/03 08:08:35;;;;;;;4.70;4.40;;;;;;;;;;4951825;28;20046;-76
2023/08/03 08:11:01;;;;;;;7.72;4.40;;;;;;;;;;4952024;29;20111;-76
2023/08/03 08:13:28;;;;;;;6.57;4.47;;;;;;;;;;4951864;29;20047;-75
2023/08/03 08:16:03;;;;;;;4.97;4.57;;;;;;;;;;4952823;29;20201;-75
2023/08/03 08:18:29;;;;;;;5.78;4.25;;;;;;;;;;4955887;29;20410;-76
2023/08/03 08:21:05;;;;;;;7.53;4.80;;;;;;;;;;4962324;29;20517;-75
2023/08/03 08:23:31;;;;;;;5.30;4.47;;;;;;;;;;4953775;28;20043;-74
2023/08/03 08:25:57;;;;;;;5.45;3.72;;;;;;;;;;4951784;28;20036;-76
2023/08/03 08:28:23;;;;;;;4.72;4.32;;;;;;;;;;4951385;28;20118;-77
2023/08/03 08:30:50;;;;;;;4.13;3.60;;;;;;;;;;4955334;28;20093;-76
2023/08/03 08:33:16;;;;;;;7.28;4.20;;;;;;;;;;4954862;28;20526;-76
2023/08/03 08:35:42;;;;;;;4.15;3.83;;;;;;;;;;4955531;29;20513;-76
2023/08/03 08:38:11;;;;;;;5.50;4.22;;;;;;;;;;4955461;29;20031;-77
2023/08/03 08:40:38;;;;;;;4.40;4.05;;;;;;;;;;4955089;29;20050;-75
2023/08/03 08:43:03;;;;;;;4.15;3.88;;;;;;;;;;4954620;28;20035;-76
2023/08/03 08:45:30;;;;;;;3.90;3.60;;;;;;;;;;4953533;29;20045;-76
2023/08/03 08:47:56;;;;;;;4.18;3.88;;;;;;;;;;4955037;28;20031;-75
2023/08/03 08:50:22;;;;;;;4.75;4.35;;;;;;;;;;4954686;29;20039;-75
2023/08/03 08:52:48;;;;;;;4.13;3.92;;;;;;;;;;4955237;29;20093;-76
2023/08/03 08:55:15;;;;;;;5.38;4.00;;;;;;;;;;4955144;29;20059;-76
2023/08/03 08:57:41;;;;;;;4.43;4.03;;;;;;;;;;4956880;29;20051;-74
2023/08/03 09:00:07;;;;;;;4.45;4.05;;;;;;;;;;4955567;29;20039;-75
2023/08/03 09:02:34;;;;;;;7.93;4.10;;;;;;;;;;4956792;28;20632;-76
2023/08/03 09:05:09;;;;;;;5.03;4.50;;;;;;;;;;4957870;28;20050;-76
2023/08/03 09:07:36;;;;;;;5.07;4.68;;;;;;;;;;4956825;28;20110;-74
2023/08/03 09:10:02;;;;;;;4.97;4.07;;;;;;;;;;4956241;28;20202;-74
2023/08/03 09:12:30;;;;;;;5.00;4.50;;;;;;;;;;4956364;28;20202;-73
2023/08/03 09:14:57;;;;;;;6.40;4.20;;;;;;;;;;4955810;28;20070;-75
2023/08/03 09:17:24;;;;;;;4.28;3.78;;;;;;;;;;4954439;28;20038;-74
2023/08/03 09:19:50;;;;;;;4.53;4.18;;;;;;;;;;4954420;28;20498;-73
2023/08/03 09:22:19;;;;;;;3.95;3.63;;;;;;;;;;4954287;28;20549;-75
2023/08/03 09:24:48;;;;;;;4.22;3.92;;;;;;;;;;4954306;29;20035;-76
2023/08/03 09:27:15;;;;;;;4.15;3.72;;;;;;;;;;4954389;29;20502;-75
2023/08/03 09:29:41;;;;;;;6.35;3.60;;;;;;;;;;4954224;29;20034;-75
2023/08/03 09:32:07;;;;;;;5.13;4.25;;;;;;;;;;4954185;28;20483;-76
2023/08/03 09:34:34;;;;;;;6.35;3.88;;;;;;;;;;4953760;28;20523;-75
2023/08/03 09:37:00;;;;;;;5.65;3.25;;;;;;;;;;4954110;28;20043;-73
2023/08/03 09:39:32;;;;;;;9.50;4.20;;;;;;;;;;4953378;28;20050;-75
2023/08/03 09:42:01;;;;;;;4.43;4.03;;;;;;;;;;4953686;28;20035;-76
2023/08/03 09:44:27;;;;;;;7.57;4.78;;;;;;;;;;4953751;28;20035;-76
2023/08/03 09:46:53;;;;;;;5.00;4.43;;;;;;;;;;4952595;29;20086;-75
2023/08/03 09:49:19;;;;;;;4.40;4.05;;;;;;;;;;4953895;28;20035;-75
2023/08/03 09:51:46;;;;;;;4.07;3.80;;;;;;;;;;4953851;29;20122;-75
2023/08/03 09:54:32;;;;;;;5.60;3.92;;;;;;;;;;4953823;28;20051;-75
2023/08/03 09:56:59;;;;;;;6.32;3.70;;;;;;;;;;4952299;29;20069;-75
2023/08/03 09:59:26;;;;;;;5.75;4.10;;;;;;;;;;4951811;29;20078;-76
2023/08/03 10:01:53;;;;;;;4.40;4.00;;;;;;;;;;4953829;28;20510;-75
2023/08/03 10:04:19;;;;;;;5.00;4.35;;;;;;;;;;4951889;29;20035;-76
2023/08/03 10:06:45;;;;;;;3.58;3.30;;;;;;;;;;4953337;29;20039;-74
2023/08/03 10:09:13;;;;;;;6.30;4.20;;;;;;;;;;4953360;28;20044;-74
2023/08/03 10:11:41;;;;;;;4.68;3.95;;;;;;;;;;4953060;28;20073;-74
2023/08/03 10:14:08;;;;;;;8.77;3.90;;;;;;;;;;4952117;29;20039;-76
2023/08/03 10:16:35;;;;;;;3.92;3.70;;;;;;;;;;4951940;29;20422;-75
2023/08/03 10:19:01;;;;;;;4.03;3.72;;;;;;;;;;4953398;29;20042;-75
2023/08/03 10:21:27;;;;;;;7.13;4.30;;;;;;;;;;4953134;29;20117;-77
2023/08/03 10:24:13;;;;;;;4.22;3.80;;;;;;;;;;4951976;29;20522;-75
2023/08/03 10:26:39;;;;;;;4.30;4.00;;;;;;;;;;4953113;28;20038;-77
2023/08/03 10:29:05;;;;;;;5.05;4.18;;;;;;;;;;4952006;29;20137;-75
2023/08/03 10:31:31;;;;;;;5.55;4.47;;;;;;;;;;4953042;28;20518;-75
2023/08/03 10:33:57;;;;;;;8.75;4.22;;;;;;;;;;4953097;28;20042;-76
2023/08/03 10:36:26;;;;;;;3.83;3.63;;;;;;;;;;4952754;28;20118;-74
2023/08/03 10:38:55;;;;;;;6.23;4.10;;;;;;;;;;4952983;28;20221;-74
2023/08/03 10:41:22;;;;;;;4.15;3.95;;;;;;;;;;4952601;28;20043;-75
2023/08/03 10:44:06;;;;;;;4.20;3.35;;;;;;;;;;4953047;28;20039;-75
2023/08/03 10:46:33;;;;;;;5.75;4.10;;;;;;;;;;4935501;29;20517;-75
2023/08/03 10:48:59;;;;;;;5.40;4.55;;;;;;;;;;4952869;29;20027;-75
2023/08/03 10:51:25;;;;;;;5.00;4.60;;;;;;;;;;4952668;28;20548;-75
2023/08/03 10:53:51;;;;;;;4.43;4.03;;;;;;;;;;4952652;28;20042;-75
2023/08/03 10:56:17;;;;;;;5.90;3.97;;;;;;;;;;4952776;28;20054;-75
2023/08/03 10:58:47;;;;;;;4.20;4.00;;;;;;;;;;4951186;29;20141;-76
2023/08/03 11:01:13;;;;;;;;;;;;;;;;;;4952165;29;20035;-74
2023/08/03 11:03:39;;;;;;;4.57;4.25;;;;;;;;;;4951379;29;19922;-75
2023/08/03 11:06:12;;;;;;;4.68;4.28;;;;;;;;;;4951471;29;20540;-74
2023/08/03 11:08:39;;;;;;;3.97;3.67;;;;;;;;;;4952544;28;20090;-76
2023/08/03 11:11:10;;;;;;;5.38;3.88;;;;;;;;;;4951191;29;20039;-75
2023/08/03 11:13:36;;;;;;;4.30;3.92;;;;;;;;;;4952769;29;20047;-74
2023/08/03 11:16:03;;;;;;;6.90;3.85;;;;;;;;;;4953546;28;20039;-75
2023/08/03 11:18:29;;;;;;;3.97;3.70;;;;;;;;;;4953312;28;20086;-76
2023/08/03 11:20:55;;;;;;;4.53;4.15;;;;;;;;;;4956270;29;20031;-75
2023/08/03 11:23:21;;;;;;;8.35;4.55;;;;;;;;;;4960484;28;20073;-76
2023/08/03 11:25:47;;;;;;;3.90;3.70;;;;;;;;;;4963891;28;20035;-75
2023/08/03 11:28:18;;;;;;;4.25;3.95;;;;;;;;;;4964471;28;20046;-75
2023/08/03 11:30:45;;;;;;;4.80;4.28;;;;;;;;;;4965572;29;20039;-76
2023/08/03 11:33:14;;;;;;;4.35;4.03;;;;;;;;;;4961148;29;20063;-76
2023/08/03 11:35:40;;;;;;;4.50;4.20;;;;;;;;;;4950936;29;20058;-75
2023/08/03 11:38:06;;;;;;;4.43;4.00;;;;;;;;;;4952068;29;20178;-76
2023/08/03 11:40:32;;;;;;;12.57;4.40;;;;;;;;;;4950629;29;20498;-75
2023/08/03 11:42:59;;;;;;;4.90;3.90;;;;;;;;;;4952199;28;20054;-75
2023/08/03 11:45:24;;;;;;;7.03;4.50;;;;;;;;;;4934922;29;20036;-74
2023/08/03 11:47:51;;;;;;;4.93;3.92;;;;;;;;;;4952093;28;20105;-74
2023/08/03 11:50:18;;;;;;;3.70;3.33;;;;;;;;;;4951873;28;20462;-75
2023/08/03 11:52:43;;;;;;;3.95;3.65;;;;;;;;;;4952122;28;20035;-76
2023/08/03 11:55:16;;;;;;;6.43;4.43;;;;;;;;;;4951729;28;20077;-75
2023/08/03 12:00:27;;;;;;;3.30;3.10;;;;;;;;;;4951555;29;20497;-75
2023/08/03 12:02:53;;;;;;;8.85;3.22;;;;;;;;;;4952124;28;20047;-76
2023/08/03 12:05:19;;;;;;;5.85;2.90;;;;;;;;;;4955761;29;20039;-74
2023/08/03 12:07:54;;;;;;;2.25;2.10;;;;;;;;;;4955592;28;20040;-77
2023/08/03 12:10:20;;;;;;;2.30;2.20;;;;;;;;;;4954350;29;20039;-74
2023/08/03 12:12:46;;;;;;;3.95;3.08;;;;;;;;;;4955440;28;20037;-74
2023/08/03 12:15:13;;;;;;;3.15;2.95;;;;;;;;;;4954006;29;20059;-76
2023/08/03 12:17:39;;;;;;;3.47;3.17;;;;;;;;;;4955429;28;20083;-75
2023/08/03 12:20:05;;;;;;;3.38;2.72;;;;;;;;;;4955480;28;20066;-76
2023/08/03 12:22:32;;;;;;;3.00;2.80;;;;;;;;;;4970085;28;20199;-75
2023/08/03 12:24:58;;;;;;;3.55;3.10;;;;;;;;;;4954300;29;20134;-74
2023/08/03 12:27:24;;;;;;;4.03;3.28;;;;;;;;;;4955343;29;20106;-76
2023/08/03 12:29:50;;;;;;;3.78;3.42;;;;;;;;;;4955200;28;20131;-76
2023/08/03 12:32:16;;;;;;;3.85;3.55;;;;;;;;;;4955319;28;20503;-76
2023/08/03 12:34:42;;;;;;;3.85;3.60;;;;;;;;;;4953705;29;20055;-75
2023/08/03 12:37:08;;;;;;;3.50;3.30;;;;;;;;;;4955125;28;20094;-77
2023/08/03 12:39:34;;;;;;;4.18;3.70;;;;;;;;;;4953840;29;20042;-74
2023/08/03 12:42:00;;;;;;;8.63;3.80;;;;;;;;;;4954999;29;20031;-75
2023/08/03 12:44:26;;;;;;;4.97;4.05;;;;;;;;;;4955157;28;20043;-76
2023/08/03 12:46:52;;;;;;;4.82;3.70;;;;;;;;;;4953439;29;20422;-75
2023/08/03 12:49:19;;;;;;;4.65;4.35;;;;;;;;;;4954897;28;20421;-76
2023/08/03 12:51:45;;;;;;;6.28;4.30;;;;;;;;;;4954776;28;20410;-75
2023/08/03 12:54:11;;;;;;;5.53;4.32;;;;;;;;;;4955167;28;20043;-75
2023/08/03 12:56:38;;;;;;;5.20;4.70;;;;;;;;;;4954905;28;20038;-76
2023/08/03 12:59:04;;;;;;;6.82;4.90;;;;;;;;;;4953456;29;20063;-76
2023/08/03 13:01:31;;;;;;;5.60;5.00;;;;;;;;;;4954645;28;20063;-73
2023/08/03 13:03:57;;;;;;;6.07;4.85;;;;;;;;;;4953546;29;20150;-73
2023/08/03 13:06:23;;;;;;;5.30;4.53;;;;;;;;;;4954643;28;20490;-76
2023/08/03 13:08:49;;;;;;;5.68;4.88;;;;;;;;;;4954471;28;20035;-76
2023/08/03 13:11:15;;;;;;;4.93;4.60;;;;;;;;;;4953308;29;20103;-75
2023/08/03 13:13:41;;;;;;;4.97;4.47;;;;;;;;;;4954280;29;20043;-75
2023/08/03 13:16:07;;;;;;;6.80;4.38;;;;;;;;;;4953175;28;20130;-76
2023/08/03 13:18:33;;;;;;;9.60;4.85;;;;;;;;;;4954291;28;20119;-76
2023/08/03 13:20:59;;;;;;;5.88;4.43;;;;;;;;;;4937205;29;20070;-75
2023/08/03 13:23:25;;;;;;;5.00;4.60;;;;;;;;;;4953214;29;20031;-75
2023/08/03 13:25:51;;;;;;;4.25;3.95;;;;;;;;;;4954152;29;20043;-75
2023/08/03 13:28:17;;;;;;;5.57;4.40;;;;;;;;;;4953121;29;20038;-76
2023/08/03 13:30:43;;;;;;;8.52;4.40;;;;;;;;;;4952973;29;20039;-75
2023/08/03 13:33:09;;;;;;;5.53;5.15;;;;;;;;;;4954417;29;20455;-77
2023/08/03 13:35:35;;;;;;;7.88;4.18;;;;;;;;;;4953937;28;20146;-76
2023/08/03 13:38:02;;;;;;;28.00;5.20;;;;;;;;;;4954122;28;20035;-75
2023/08/03 13:40:28;;;;;;;15.18;3.88;;;;;;;;;;4953869;28;20122;-75
2023/08/03 13:42:53;;;;;;;6.60;2.65;;;;;;;;;;4953774;28;20483;-74
2023/08/03 13:45:19;;;;;;;10.60;3.28;;;;;;;;;;4953864;28;20066;-75
2023/08/03 13:47:45;;;;;;;6.25;3.63;;;;;;;;;;4953761;28;20038;-74
2023/08/03 13:50:11;;;;;;;6.32;3.20;;;;;;;;;;4953993;28;20053;-75
2023/08/03 13:52:37;;;;;;;7.07;4.15;;;;;;;;;;4953756;28;20074;-74
2023/08/03 13:55:03;;;;;;;5.07;4.05;;;;;;;;;;4953693;28;20467;-74
2023/08/03 13:57:32;;;;;;;5.72;4.97;;;;;;;;;;4952434;29;20102;-74
2023/08/03 13:59:58;;;;;;;9.38;5.32;;;;;;;;;;4953770;28;20047;-74
2023/08/03 14:02:24;;;;;;;5.40;4.78;;;;;;;;;;4953712;28;20098;-73
2023/08/03 14:04:50;;;;;;;11.90;5.00;;;;;;;;;;4953433;28;20039;-74
2023/08/03 14:07:17;;;;;;;7.82;5.53;;;;;;;;;;4953448;28;20035;-73
2023/08/03 14:09:44;;;;;;;16.65;6.05;;;;;;;;;;4954736;28;20085;-74
2023/08/03 14:12:10;;;;;;;8.80;6.03;;;;;;;;;;4954329;28;20035;-74
2023/08/03 14:14:36;;;;;;;8.57;7.10;;;;;;;;;;4953518;28;20162;-73
2023/08/03 14:17:02;;;;;;;9.40;5.28;;;;;;;;;;4952303;29;20070;-74
2023/08/03 14:19:29;;;;;;;6.32;5.55;;;;;;;;;;4953795;28;20502;-74
2023/08/03 14:21:55;;;;;;;6.45;5.50;;;;;;;;;;4953513;29;20070;-76
2023/08/03 14:24:22;;;;;;;6.13;5.28;;;;;;;;;;4953519;29;20039;-75
2023/08/03 14:26:48;;;;;;;5.32;4.88;;;;;;;;;;4952609;28;20051;-74
2023/08/03 14:29:14;;;;;;;5.55;4.88;;;;;;;;;;4953123;28;20042;-74
2023/08/03 14:31:40;;;;;;;5.03;4.25;;;;;;;;;;4953088;28;20126;-75
2023/08/03 14:34:06;;;;;;;4.90;4.50;;;;;;;;;;4952048;29;20190;-73
2023/08/03 14:36:32;;;;;;;6.22;5.63;;;;;;;;;;4953111;28;20481;-75